createdAt,value
2023-03-17T00:01:36.563Z,97.40
2023-03-17T00:03:40.877Z,97.70
2023-03-17T00:05:43.193Z,97.40
2023-03-17T00:07:46.529Z,97.20
2023-03-17T00:09:49.021Z,97.50
2023-03-17T00:11:54.693Z,97.20
2023-03-17T00:13:57.653Z,97.00
2023-03-17T00:16:03.472Z,97.00
2023-03-17T00:18:12.277Z,96.90
2023-03-17T00:20:25.583Z,96.90
2023-03-17T00:22:28.129Z,96.80
2023-03-17T00:24:31.626Z,96.70
2023-03-17T00:26:34.185Z,96.60
2023-03-17T00:28:39.596Z,96.50
2023-03-17T00:30:42.726Z,96.50
2023-03-17T00:32:46.784Z,96.30
2023-03-17T00:34:49.368Z,96.30
2023-03-17T00:36:52.004Z,96.40
2023-03-17T00:38:54.559Z,96.30
2023-03-17T00:40:56.998Z,96.30
2023-03-17T00:43:03.380Z,96.20
2023-03-17T00:45:10.261Z,96.10
2023-03-17T00:47:20.716Z,96.00
2023-03-17T00:49:26.386Z,96.10
2023-03-17T00:51:32.343Z,96.00
2023-03-17T00:53:36.173Z,96.10
2023-03-17T00:55:38.722Z,95.80
2023-03-17T00:57:41.526Z,95.80
2023-03-17T00:59:46.253Z,95.80
2023-03-17T01:01:51.557Z,95.70
2023-03-17T01:03:54.026Z,95.70
2023-03-17T01:06:00.738Z,95.80
2023-03-17T01:08:03.817Z,95.70
2023-03-17T01:10:13.017Z,95.70
2023-03-17T01:12:17.204Z,95.60
2023-03-17T01:14:19.780Z,95.40
2023-03-17T01:16:23.501Z,95.40
2023-03-17T01:18:28.532Z,95.50
2023-03-17T01:20:39.644Z,95.30
2023-03-17T01:22:43.135Z,95.30
2023-03-17T01:24:47.869Z,95.50
2023-03-17T01:26:51.001Z,95.40
2023-03-17T01:28:54.016Z,95.40
2023-03-17T01:30:56.855Z,95.30
2023-03-17T01:33:00.143Z,95.30
2023-03-17T01:35:06.966Z,95.30
2023-03-17T01:37:09.838Z,95.30
2023-03-17T01:39:13.036Z,95.30
2023-03-17T01:41:21.017Z,95.20
2023-03-17T01:43:25.872Z,95.00
2023-03-17T01:45:59.524Z,95.10
2023-03-17T01:48:02.225Z,94.70
2023-03-17T01:50:12.485Z,95.00
2023-03-17T01:52:20.820Z,94.90
2023-03-17T01:54:29.715Z,95.00
2023-03-17T01:56:32.800Z,95.00
2023-03-17T01:58:35.505Z,94.90
2023-03-17T02:00:39.082Z,94.90
2023-03-17T02:02:44.740Z,94.80
2023-03-17T02:04:47.428Z,94.70
2023-03-17T02:07:00.532Z,94.70
2023-03-17T02:09:05.949Z,94.60
2023-03-17T02:11:08.766Z,94.70
2023-03-17T02:13:13.809Z,94.80
2023-03-17T02:15:17.464Z,94.80
2023-03-17T02:17:23.022Z,94.80
2023-03-17T02:19:25.956Z,94.80
2023-03-17T02:21:39.267Z,94.70
2023-03-17T02:23:43.643Z,94.50
2023-03-17T02:25:47.567Z,94.60
2023-03-17T02:27:54.891Z,94.60
2023-03-17T02:29:58.231Z,94.50
2023-03-17T02:32:01.096Z,94.70
2023-03-17T02:34:05.929Z,94.70
2023-03-17T02:36:11.067Z,94.40
2023-03-17T02:38:16.031Z,94.30
2023-03-17T02:40:18.846Z,94.10
2023-03-17T02:42:21.526Z,94.10
2023-03-17T02:44:24.527Z,94.20
2023-03-17T02:46:30.008Z,94.10
2023-03-17T02:48:36.750Z,94.10
2023-03-17T02:50:39.504Z,94.00
2023-03-17T02:52:41.960Z,94.00
2023-03-17T02:54:47.291Z,94.10
2023-03-17T02:56:50.070Z,94.10
2023-03-17T02:58:52.664Z,94.00
2023-03-17T03:00:55.126Z,94.00
2023-03-17T03:02:57.932Z,94.10
2023-03-17T03:05:00.836Z,94.10
2023-03-17T03:07:07.961Z,94.20
2023-03-17T03:09:11.869Z,94.20
2023-03-17T03:11:17.215Z,94.10
2023-03-17T03:13:19.784Z,94.00
2023-03-17T03:15:23.284Z,94.10
2023-03-17T03:17:26.460Z,94.10
2023-03-17T03:19:29.459Z,94.20
2023-03-17T03:21:32.298Z,94.10
2023-03-17T03:23:34.979Z,94.30
2023-03-17T03:25:38.119Z,94.40
2023-03-17T03:27:43.238Z,94.40
2023-03-17T03:29:46.382Z,94.50
2023-03-17T03:31:48.961Z,94.60
2023-03-17T03:33:51.752Z,94.90
2023-03-17T03:35:54.451Z,94.50
2023-03-17T03:37:57.558Z,94.60
2023-03-17T03:40:00.120Z,94.60
2023-03-17T03:42:02.909Z,94.70
2023-03-17T03:44:08.157Z,94.70
2023-03-17T03:46:11.018Z,94.80
2023-03-17T03:48:13.839Z,94.80
2023-03-17T03:50:16.864Z,94.90
2023-03-17T03:52:19.722Z,94.90
2023-03-17T03:54:22.235Z,94.90
2023-03-17T03:56:24.986Z,95.20
2023-03-17T03:58:27.694Z,95.00
2023-03-17T04:00:33.352Z,95.10
2023-03-17T04:02:47.501Z,95.00
2023-03-17T04:04:50.275Z,95.00
2023-03-17T04:06:52.873Z,95.00
2023-03-17T04:08:57.881Z,94.90
2023-03-17T04:11:01.144Z,94.90
2023-03-17T04:13:03.777Z,95.00
2023-03-17T04:15:09.225Z,95.10
2023-03-17T04:17:14.881Z,95.10
2023-03-17T04:19:18.253Z,95.10
2023-03-17T04:21:21.694Z,95.40
2023-03-17T04:23:24.252Z,95.30
2023-03-17T04:25:27.081Z,95.30
2023-03-17T04:27:29.903Z,95.30
2023-03-17T04:29:32.321Z,95.10
2023-03-17T04:31:35.170Z,95.40
2023-03-17T04:33:40.887Z,95.30
2023-03-17T04:35:45.075Z,95.20
2023-03-17T04:37:49.433Z,95.30
2023-03-17T04:39:52.344Z,95.40
2023-03-17T04:41:54.856Z,95.30
2023-03-17T04:44:06.375Z,95.40
2023-03-17T04:46:12.383Z,95.50
2023-03-17T04:48:15.067Z,95.50
2023-03-17T04:50:20.316Z,95.60
2023-03-17T04:52:22.737Z,95.60
2023-03-17T04:54:25.382Z,95.70
2023-03-17T04:56:28.114Z,95.70
2023-03-17T04:58:31.383Z,96.00
2023-03-17T05:00:38.836Z,95.80
2023-03-17T05:02:48.168Z,95.80
2023-03-17T05:04:52.745Z,95.80
2023-03-17T05:07:02.903Z,96.00
2023-03-17T05:09:05.770Z,95.80
2023-03-17T05:11:09.522Z,95.80
2023-03-17T05:13:11.887Z,95.90
2023-03-17T05:15:14.721Z,95.90
2023-03-17T05:17:17.311Z,95.90
2023-03-17T05:19:21.478Z,95.90
2023-03-17T05:21:25.003Z,95.80
2023-03-17T05:23:30.418Z,95.90
2023-03-17T05:25:33.238Z,95.70
2023-03-17T05:27:35.710Z,95.80
2023-03-17T05:29:38.795Z,95.80
2023-03-17T05:32:01.116Z,95.80
2023-03-17T05:34:23.551Z,95.90
2023-03-17T05:36:46.635Z,95.80
2023-03-17T05:39:14.419Z,95.90
2023-03-17T05:41:37.278Z,95.80
2023-03-17T05:43:59.686Z,95.60
2023-03-17T05:46:22.504Z,95.60
2023-03-17T05:48:25.394Z,95.60
2023-03-17T05:50:28.505Z,95.40
2023-03-17T05:52:31.771Z,95.50
2023-03-17T05:54:36.973Z,95.50
2023-03-17T05:56:42.802Z,95.50
2023-03-17T05:58:45.871Z,95.50
2023-03-17T06:00:50.014Z,95.50
2023-03-17T06:03:02.507Z,95.40
2023-03-17T06:05:08.571Z,95.50
2023-03-17T06:07:12.187Z,95.40
2023-03-17T06:09:18.153Z,95.40
2023-03-17T06:11:23.482Z,95.40
2023-03-17T06:13:46.035Z,95.40
2023-03-17T06:16:09.739Z,95.30
2023-03-17T06:18:32.205Z,95.20
2023-03-17T06:20:55.829Z,95.10
2023-03-17T06:23:04.381Z,95.30
2023-03-17T06:25:08.559Z,95.40
2023-03-17T06:27:14.521Z,95.30
2023-03-17T06:29:17.394Z,95.40
2023-03-17T06:31:20.128Z,95.10
2023-03-17T06:33:22.560Z,95.10
2023-03-17T06:35:25.368Z,94.80
2023-03-17T06:37:28.151Z,94.70
2023-03-17T06:39:30.538Z,94.70
2023-03-17T06:41:33.173Z,94.50
2023-03-17T06:43:38.616Z,94.70
2023-03-17T06:45:41.689Z,94.70
2023-03-17T06:47:44.261Z,94.80
2023-03-17T06:49:46.679Z,94.40
2023-03-17T06:51:49.096Z,94.60
2023-03-17T06:53:52.013Z,94.50
2023-03-17T06:55:54.536Z,94.50
2023-03-17T06:57:56.928Z,94.60
2023-03-17T07:00:02.075Z,94.70
2023-03-17T07:02:05.408Z,94.60
2023-03-17T07:04:07.913Z,94.80
2023-03-17T07:06:10.682Z,94.80
2023-03-17T07:08:13.408Z,95.00
2023-03-17T07:10:17.409Z,95.00
2023-03-17T07:12:20.199Z,95.10
2023-03-17T07:14:22.558Z,95.00
2023-03-17T07:16:27.784Z,94.80
2023-03-17T07:18:33.917Z,94.70
2023-03-17T07:20:37.227Z,94.70
2023-03-17T07:22:39.771Z,94.50
2023-03-17T07:24:43.356Z,94.70
2023-03-17T07:26:46.263Z,94.60
2023-03-17T07:28:48.889Z,94.70
2023-03-17T07:30:51.660Z,94.70
2023-03-17T07:32:57.790Z,94.60
2023-03-17T07:35:00.198Z,94.70
2023-03-17T07:37:02.745Z,94.70
2023-03-17T07:39:05.350Z,94.30
2023-03-17T07:41:11.031Z,94.10
2023-03-17T07:43:13.727Z,93.70
2023-03-17T07:45:16.301Z,93.70
2023-03-17T07:47:18.806Z,93.60
2023-03-17T07:49:39.992Z,93.50
2023-03-17T07:51:46.043Z,93.20
2023-03-17T07:53:50.107Z,93.20
2023-03-17T07:55:52.730Z,93.00
2023-03-17T07:57:55.127Z,92.20
2023-03-17T07:59:57.885Z,91.30
2023-03-17T08:02:01.903Z,91.60
2023-03-17T08:04:05.039Z,91.50
2023-03-17T08:06:10.207Z,91.30
2023-03-17T08:08:12.831Z,91.40
2023-03-17T08:10:15.287Z,91.20
2023-03-17T08:12:17.630Z,91.30
2023-03-17T08:14:20.517Z,91.50
2023-03-17T08:16:23.184Z,91.60
2023-03-17T08:18:25.786Z,91.10
2023-03-17T08:20:31.316Z,91.10
2023-03-17T08:22:37.289Z,91.10
2023-03-17T08:24:43.032Z,90.50
2023-03-17T08:26:48.198Z,90.80
2023-03-17T08:28:50.719Z,90.80
2023-03-17T08:30:53.508Z,90.90
2023-03-17T08:32:56.199Z,90.80
2023-03-17T08:34:58.533Z,90.80
2023-03-17T08:37:01.983Z,90.50
2023-03-17T08:39:06.954Z,90.20
2023-03-17T08:41:16.652Z,90.30
2023-03-17T08:43:19.186Z,90.60
2023-03-17T08:45:21.502Z,90.70
2023-03-17T08:47:24.079Z,90.90
2023-03-17T08:49:27.406Z,90.80
2023-03-17T08:51:32.404Z,90.90
2023-03-17T08:53:35.306Z,91.00
2023-03-17T08:55:40.770Z,91.00
2023-03-17T08:57:44.832Z,91.00
2023-03-17T08:59:47.731Z,90.90
2023-03-17T09:01:50.712Z,90.90
2023-03-17T09:03:55.199Z,90.90
2023-03-17T09:05:58.268Z,90.70
2023-03-17T09:08:00.652Z,90.70
2023-03-17T09:10:04.044Z,90.30
2023-03-17T09:12:10.223Z,90.00
2023-03-17T09:14:12.679Z,89.90
2023-03-17T09:16:17.434Z,89.40
2023-03-17T09:18:22.023Z,89.10
2023-03-17T09:20:24.678Z,88.60
2023-03-17T09:22:27.168Z,87.10
2023-03-17T09:24:30.509Z,85.90
2023-03-17T09:26:32.851Z,85.50
2023-03-17T09:28:38.234Z,84.20
2023-03-17T09:30:42.786Z,83.90
2023-03-17T09:32:46.097Z,84.70
2023-03-17T09:34:51.444Z,84.40
2023-03-17T09:36:54.455Z,84.70
2023-03-17T09:38:57.126Z,84.40
2023-03-17T09:41:06.824Z,82.40
2023-03-17T09:43:21.687Z,80.00
2023-03-17T09:45:32.461Z,79.80
2023-03-17T09:47:56.532Z,80.60
2023-03-17T09:50:01.263Z,79.80
2023-03-17T09:52:04.046Z,79.90
2023-03-17T09:54:11.605Z,79.90
2023-03-17T09:56:16.394Z,79.60
2023-03-17T09:58:26.171Z,79.80
2023-03-17T10:00:31.911Z,79.90
2023-03-17T10:02:37.484Z,78.90
2023-03-17T10:04:42.410Z,78.30
2023-03-17T10:06:46.902Z,79.10
2023-03-17T10:08:57.688Z,78.20
2023-03-17T10:11:07.014Z,77.50
2023-03-17T10:13:22.914Z,77.10
2023-03-17T10:15:33.239Z,77.20
2023-03-17T10:17:39.375Z,76.80
2023-03-17T10:19:45.503Z,77.20
2023-03-17T10:21:53.810Z,76.30
2023-03-17T10:23:58.075Z,76.60
2023-03-17T10:26:07.151Z,76.80
2023-03-17T10:28:23.943Z,76.50
2023-03-17T10:30:27.513Z,76.80
2023-03-17T10:32:37.825Z,76.90
2023-03-17T10:34:41.704Z,76.40
2023-03-17T10:36:47.533Z,76.20
2023-03-17T10:38:52.519Z,76.20
2023-03-17T10:40:57.684Z,76.00
2023-03-17T10:43:05.685Z,75.30
2023-03-17T10:45:16.941Z,75.00
2023-03-17T10:47:30.649Z,72.20
2023-03-17T10:49:37.133Z,71.70
2023-03-17T10:51:40.756Z,70.50
2023-03-17T10:53:43.919Z,71.00
2023-03-17T10:55:50.292Z,70.60
2023-03-17T10:57:56.124Z,70.10
2023-03-17T11:00:01.854Z,70.10
2023-03-17T11:02:14.520Z,69.10
2023-03-17T11:04:27.461Z,66.80
2023-03-17T11:06:42.090Z,66.80
2023-03-17T11:08:46.942Z,64.20
2023-03-17T11:10:54.932Z,64.40
2023-03-17T11:13:01.476Z,65.60
2023-03-17T11:15:06.704Z,66.20
2023-03-17T11:17:17.588Z,65.50
2023-03-17T11:19:22.771Z,62.30
2023-03-17T11:21:29.505Z,63.90
2023-03-17T11:23:51.369Z,64.20
2023-03-17T11:26:01.933Z,60.80
2023-03-17T11:28:17.039Z,63.50
2023-03-17T11:30:30.532Z,63.30
2023-03-17T11:32:37.192Z,64.20
2023-03-17T11:34:52.215Z,64.10
2023-03-17T11:37:02.523Z,62.00
2023-03-17T11:39:12.839Z,64.30
2023-03-17T11:41:41.809Z,63.70
2023-03-17T11:43:56.859Z,61.40
2023-03-17T11:46:07.038Z,63.80
2023-03-17T11:48:19.934Z,60.10
2023-03-17T11:50:30.137Z,58.90
2023-03-17T11:52:52.742Z,60.40
2023-03-17T11:55:04.538Z,59.90
2023-03-17T11:57:13.525Z,59.50
2023-03-17T11:59:27.976Z,60.20
2023-03-17T12:01:37.189Z,59.60
2023-03-17T12:03:43.730Z,60.30
2023-03-17T12:05:48.811Z,58.70
2023-03-17T12:07:54.906Z,59.30
2023-03-17T12:10:10.124Z,59.90
2023-03-17T12:12:18.322Z,60.20
2023-03-17T12:14:27.104Z,60.60
2023-03-17T12:16:33.275Z,59.10
2023-03-17T12:18:40.090Z,58.40
2023-03-17T12:20:49.889Z,59.10
2023-03-17T12:22:58.039Z,59.50
2023-03-17T12:25:12.895Z,58.70
2023-03-17T12:27:19.619Z,58.80
2023-03-17T12:29:30.735Z,59.10
2023-03-17T12:31:36.761Z,57.00
2023-03-17T12:33:46.528Z,57.00
2023-03-17T12:35:49.372Z,58.00
2023-03-17T12:37:52.104Z,58.40
2023-03-17T12:40:00.830Z,59.40
2023-03-17T12:42:30.341Z,59.20
2023-03-17T12:44:58.470Z,58.40
2023-03-17T12:47:26.618Z,59.00
2023-03-17T12:49:49.915Z,58.70
2023-03-17T12:52:10.427Z,60.20
2023-03-17T12:54:18.502Z,60.40
2023-03-17T12:56:24.631Z,61.00
2023-03-17T12:58:35.780Z,61.20
2023-03-17T13:00:50.771Z,61.50
2023-03-17T13:03:11.968Z,61.00
2023-03-17T13:05:16.632Z,60.80
2023-03-17T13:07:22.368Z,61.10
2023-03-17T13:09:47.730Z,61.00
2023-03-17T13:11:50.163Z,60.90
2023-03-17T13:14:16.252Z,61.70
2023-03-17T13:16:32.382Z,60.90
2023-03-17T13:19:06.185Z,61.30
2023-03-17T13:21:14.952Z,61.60
2023-03-17T13:23:21.382Z,61.00
2023-03-17T13:25:33.596Z,60.60
2023-03-17T13:27:44.696Z,60.70
2023-03-17T13:29:50.485Z,61.60
2023-03-17T13:32:13.332Z,61.80
2023-03-17T13:34:18.042Z,62.10
2023-03-17T13:36:30.469Z,62.60
2023-03-17T13:39:15.027Z,62.90
2023-03-17T13:41:32.430Z,62.90
2023-03-17T13:43:56.017Z,63.20
2023-03-17T13:46:25.304Z,63.80
2023-03-17T13:48:34.385Z,64.10
2023-03-17T13:50:40.221Z,64.60
2023-03-17T13:52:47.268Z,64.60
2023-03-17T13:55:00.987Z,64.80
2023-03-17T13:57:34.563Z,64.70
2023-03-17T13:59:56.543Z,65.00
2023-03-17T14:02:12.364Z,65.00
2023-03-17T14:04:23.155Z,64.80
2023-03-17T14:06:31.365Z,64.70
2023-03-17T14:08:36.033Z,64.80
2023-03-17T14:10:38.427Z,64.40
2023-03-17T14:12:45.486Z,64.50
2023-03-17T14:14:51.169Z,64.30
2023-03-17T14:16:59.359Z,64.40
2023-03-17T14:19:17.795Z,64.40
2023-03-17T14:21:22.919Z,63.60
2023-03-17T14:23:26.255Z,63.70
2023-03-17T14:25:33.993Z,64.10
2023-03-17T14:27:37.912Z,64.10
2023-03-17T14:29:40.509Z,64.30
2023-03-17T14:31:47.735Z,64.70
2023-03-17T14:33:55.846Z,64.80
2023-03-17T14:36:02.699Z,65.20
2023-03-17T14:38:17.509Z,65.00
2023-03-17T14:40:22.636Z,65.40
2023-03-17T14:42:28.497Z,65.70
2023-03-17T14:44:37.260Z,65.70
2023-03-17T14:46:41.333Z,66.10
2023-03-17T14:48:47.376Z,66.70
2023-03-17T14:50:52.223Z,67.00
2023-03-17T14:52:58.627Z,67.30
2023-03-17T14:55:01.808Z,68.20
2023-03-17T14:57:07.367Z,68.60
2023-03-17T14:59:20.555Z,69.10
2023-03-17T15:01:34.542Z,69.70
2023-03-17T15:03:40.557Z,70.70
2023-03-17T15:05:48.376Z,71.30
2023-03-17T15:07:51.057Z,71.30
2023-03-17T15:10:03.593Z,71.30
2023-03-17T15:12:13.251Z,70.70
2023-03-17T15:14:21.325Z,71.20
2023-03-17T15:16:27.457Z,71.20
2023-03-17T15:18:30.489Z,70.70
2023-03-17T15:20:35.495Z,71.20
2023-03-17T15:22:42.838Z,71.50
2023-03-17T15:24:45.389Z,71.40
2023-03-17T15:26:50.581Z,71.50
2023-03-17T15:28:55.095Z,71.10
2023-03-17T15:31:10.949Z,71.50
2023-03-17T15:33:21.260Z,70.90
2023-03-17T15:35:23.664Z,70.60
2023-03-17T15:37:27.961Z,71.10
2023-03-17T15:39:30.432Z,71.20
2023-03-17T15:41:32.775Z,70.40
2023-03-17T15:43:37.864Z,70.60
2023-03-17T15:45:40.646Z,71.00
2023-03-17T15:47:45.395Z,72.00
2023-03-17T15:49:49.000Z,71.60
2023-03-17T15:51:52.521Z,72.00
2023-03-17T15:53:55.393Z,72.20
2023-03-17T15:55:57.946Z,71.90
2023-03-17T15:58:00.493Z,72.00
2023-03-17T16:00:06.625Z,71.70
2023-03-17T16:02:25.965Z,71.70
2023-03-17T16:04:28.638Z,71.40
2023-03-17T16:06:31.367Z,72.20
2023-03-17T16:08:34.107Z,72.50
2023-03-17T16:10:36.538Z,72.60
2023-03-17T16:12:38.890Z,73.10
2023-03-17T16:14:42.935Z,73.20
2023-03-17T16:16:48.042Z,73.50
2023-03-17T16:18:51.759Z,73.40
2023-03-17T16:20:54.751Z,73.60
2023-03-17T16:23:01.168Z,73.90
2023-03-17T16:25:04.866Z,74.40
2023-03-17T16:27:14.493Z,74.80
2023-03-17T16:29:18.107Z,75.00
2023-03-17T16:31:24.132Z,75.50
2023-03-17T16:33:33.757Z,75.70
2023-03-17T16:35:36.287Z,76.30
2023-03-17T16:37:38.617Z,76.50
2023-03-17T16:39:41.088Z,76.70
2023-03-17T16:41:44.522Z,77.00
2023-03-17T16:43:51.338Z,78.70
2023-03-17T16:45:55.841Z,79.00
2023-03-17T16:47:59.163Z,80.10
2023-03-17T16:50:10.837Z,81.00
2023-03-17T16:52:13.244Z,82.30
2023-03-17T16:54:15.710Z,82.70
2023-03-17T16:56:20.298Z,83.40
2023-03-17T16:58:24.731Z,84.10
2023-03-17T17:00:29.605Z,84.60
2023-03-17T17:02:32.361Z,85.10
2023-03-17T17:04:38.444Z,85.70
2023-03-17T17:06:43.519Z,86.50
2023-03-17T17:08:46.538Z,87.40
2023-03-17T17:10:49.052Z,88.10
2023-03-17T17:12:51.826Z,88.50
2023-03-17T17:14:54.252Z,88.90
2023-03-17T17:16:56.649Z,89.50
2023-03-17T17:18:59.710Z,90.00
2023-03-17T17:21:03.861Z,90.20
2023-03-17T17:23:11.477Z,90.20
2023-03-17T17:25:14.033Z,89.70
2023-03-17T17:27:16.625Z,90.20
2023-03-17T17:29:18.932Z,90.30
2023-03-17T17:31:21.334Z,90.50
2023-03-17T17:33:24.437Z,90.50
2023-03-17T17:35:32.376Z,90.70
2023-03-17T17:37:35.666Z,90.70
2023-03-17T17:39:40.717Z,90.70
2023-03-17T17:41:43.241Z,90.70
2023-03-17T17:43:50.005Z,90.70
2023-03-17T17:45:53.212Z,90.70
2023-03-17T17:47:55.584Z,90.70
2023-03-17T17:49:58.649Z,90.80
2023-03-17T17:52:01.081Z,91.10
2023-03-17T17:54:03.589Z,91.50
2023-03-17T17:56:12.870Z,92.20
2023-03-17T17:58:16.401Z,92.60
2023-03-17T18:00:19.807Z,93.10
2023-03-17T18:02:22.451Z,93.30
2023-03-17T18:04:26.535Z,93.60
2023-03-17T18:06:28.996Z,94.20
2023-03-17T18:08:31.517Z,94.90
2023-03-17T18:10:34.652Z,95.30
2023-03-17T18:12:39.907Z,96.00
2023-03-17T18:14:42.488Z,96.90
2023-03-17T18:16:48.389Z,97.40
2023-03-17T18:18:51.987Z,97.70
2023-03-17T18:20:54.502Z,97.90
2023-03-17T18:22:58.317Z,98.20
2023-03-17T18:25:01.025Z,98.20
2023-03-17T18:27:04.271Z,98.30
2023-03-17T18:29:11.390Z,98.50
2023-03-17T18:31:18.126Z,98.80
2023-03-17T18:33:20.908Z,98.80
2023-03-17T18:35:25.489Z,99.00
2023-03-17T18:37:30.136Z,99.10
2023-03-17T18:39:32.659Z,99.20
2023-03-17T18:41:38.572Z,99.20
2023-03-17T18:43:42.668Z,99.20
2023-03-17T18:45:48.062Z,99.50
2023-03-17T18:47:50.741Z,99.90
2023-03-17T18:49:53.409Z,99.90
2023-03-17T18:51:56.969Z,99.90
2023-03-17T18:53:59.675Z,99.90
2023-03-17T18:56:02.299Z,99.90
2023-03-17T18:58:06.481Z,99.90
2023-03-17T19:00:11.079Z,99.90
2023-03-17T19:02:16.711Z,99.90
2023-03-17T19:04:19.252Z,99.90
2023-03-17T19:06:24.407Z,99.90
2023-03-17T19:08:27.006Z,99.90
2023-03-17T19:10:30.486Z,99.90
2023-03-17T19:12:33.258Z,99.90
2023-03-17T19:14:37.582Z,99.90
2023-03-17T19:16:41.058Z,99.90
2023-03-17T19:18:46.339Z,99.90
2023-03-17T19:20:48.756Z,99.90
2023-03-17T19:22:53.420Z,99.90
2023-03-17T19:24:55.938Z,99.90
2023-03-17T19:26:58.433Z,99.90
2023-03-17T19:29:01.696Z,99.90
2023-03-17T19:31:04.611Z,99.90
2023-03-17T19:33:08.365Z,99.90
2023-03-17T19:35:13.678Z,99.90
2023-03-17T19:37:16.428Z,99.90
2023-03-17T19:39:22.039Z,99.90
2023-03-17T19:41:24.632Z,99.90
2023-03-17T19:43:39.932Z,99.90
2023-03-17T19:45:43.543Z,99.90
2023-03-17T19:47:47.078Z,99.90
2023-03-17T19:49:49.593Z,99.90
2023-03-17T19:51:54.609Z,99.90
2023-03-17T19:53:57.015Z,99.90
2023-03-17T19:55:59.649Z,99.90
2023-03-17T19:58:04.135Z,99.90
2023-03-17T20:00:09.864Z,99.90
2023-03-17T20:02:16.856Z,99.90
2023-03-17T20:04:21.032Z,99.90
2023-03-17T20:06:23.240Z,99.90
2023-03-17T20:08:28.208Z,99.90
2023-03-17T20:10:30.811Z,99.90
2023-03-17T20:12:33.809Z,99.90
2023-03-17T20:14:36.924Z,99.90
2023-03-17T20:16:41.430Z,99.90
2023-03-17T20:18:45.458Z,99.90
2023-03-17T20:20:51.624Z,99.90
2023-03-17T20:22:56.043Z,99.90
2023-03-17T20:25:01.562Z,99.90
2023-03-17T20:27:08.737Z,99.90
2023-03-17T20:29:12.809Z,99.90
2023-03-17T20:31:15.611Z,99.90
2023-03-17T20:33:18.327Z,99.90
2023-03-17T20:35:22.284Z,99.90
2023-03-17T20:37:24.973Z,99.90
2023-03-17T20:39:28.971Z,99.90
2023-03-17T20:41:35.153Z,99.90
2023-03-17T20:43:42.324Z,99.90
2023-03-17T20:45:44.960Z,99.90
2023-03-17T20:47:48.108Z,99.90
2023-03-17T20:49:53.320Z,99.90
2023-03-17T20:51:56.312Z,99.90
2023-03-17T20:54:00.850Z,99.90
2023-03-17T20:56:03.602Z,99.90
2023-03-17T20:58:10.714Z,99.90
2023-03-17T21:00:18.063Z,99.90
2023-03-17T21:02:21.054Z,99.90
2023-03-17T21:04:23.827Z,99.90
2023-03-17T21:06:29.269Z,99.90
2023-03-17T21:08:33.878Z,99.90
2023-03-17T21:10:36.434Z,99.90
2023-03-17T21:12:41.596Z,99.90
2023-03-17T21:14:48.311Z,99.90
2023-03-17T21:16:53.471Z,99.90
2023-03-17T21:18:56.483Z,99.90
2023-03-17T21:21:07.233Z,99.90
2023-03-17T21:23:10.745Z,99.90
2023-03-17T21:25:28.712Z,99.90
2023-03-17T21:27:31.486Z,99.90
2023-03-17T21:29:56.776Z,99.90
2023-03-17T21:32:01.022Z,99.90
2023-03-17T21:34:03.766Z,99.90
2023-03-17T21:36:07.507Z,99.90
2023-03-17T21:38:16.869Z,99.90
2023-03-17T21:40:20.322Z,99.90
2023-03-17T21:42:23.678Z,99.90
2023-03-17T21:44:26.474Z,99.90
2023-03-17T21:46:32.324Z,99.90
2023-03-17T21:48:34.833Z,99.90
2023-03-17T21:50:38.567Z,99.90
2023-03-17T21:52:43.909Z,99.90
2023-03-17T21:54:46.682Z,99.90
2023-03-17T21:56:49.932Z,99.90
2023-03-17T21:58:54.187Z,99.90
2023-03-17T22:00:56.778Z,99.90
2023-03-17T22:03:02.333Z,99.90
2023-03-17T22:05:06.001Z,99.90
2023-03-17T22:07:08.654Z,99.90
2023-03-17T22:09:21.922Z,99.90
2023-03-17T22:11:24.352Z,99.90
2023-03-17T22:13:36.976Z,99.90
2023-03-17T22:15:39.411Z,99.90
2023-03-17T22:17:42.837Z,99.90
2023-03-17T22:19:48.850Z,99.90
2023-03-17T22:21:51.929Z,99.90
2023-03-17T22:23:54.853Z,99.90
2023-03-17T22:26:01.408Z,99.90
2023-03-17T22:28:04.227Z,99.90
2023-03-17T22:30:07.622Z,99.90
2023-03-17T22:32:10.380Z,99.90
2023-03-17T22:34:12.871Z,99.90
2023-03-17T22:36:18.045Z,99.90
2023-03-17T22:38:22.475Z,99.90
2023-03-17T22:40:27.033Z,99.90
2023-03-17T22:42:29.538Z,99.90
2023-03-17T22:44:32.256Z,99.90
2023-03-17T22:46:34.906Z,99.90
2023-03-17T22:48:48.679Z,99.90
2023-03-17T22:50:51.270Z,99.90
2023-03-17T22:52:56.264Z,99.90
2023-03-17T22:54:58.996Z,99.90
2023-03-17T22:57:02.265Z,99.90
2023-03-17T22:59:05.996Z,99.90
2023-03-17T23:01:12.374Z,99.90
2023-03-17T23:03:14.861Z,99.90
2023-03-17T23:05:17.952Z,99.90
2023-03-17T23:07:27.249Z,99.90
2023-03-17T23:09:32.854Z,99.90
2023-03-17T23:11:35.290Z,99.90
2023-03-17T23:13:39.920Z,99.90
2023-03-17T23:15:47.847Z,99.90
2023-03-17T23:17:50.407Z,99.90
2023-03-17T23:19:53.076Z,99.90
2023-03-17T23:21:56.452Z,99.90
2023-03-17T23:24:02.266Z,99.90
2023-03-17T23:26:09.438Z,99.90
2023-03-17T23:28:16.296Z,99.90
2023-03-17T23:30:19.031Z,99.90
2023-03-17T23:32:21.424Z,99.90
2023-03-17T23:34:24.643Z,99.90
2023-03-17T23:36:27.262Z,99.90
2023-03-17T23:38:29.907Z,99.90
2023-03-17T23:40:34.544Z,99.90
2023-03-17T23:42:39.702Z,99.90
2023-03-17T23:44:42.080Z,99.90
2023-03-17T23:46:45.341Z,99.90
2023-03-17T23:48:51.736Z,99.90
2023-03-17T23:50:54.808Z,99.90
2023-03-17T23:52:57.705Z,99.90
2023-03-17T23:55:01.201Z,99.90
2023-03-17T23:57:03.952Z,99.90
2023-03-17T23:59:10.814Z,99.90
